Time;durP1;ratioP1;P1;durP2;ratioP2;P2;SDS_P1;SDS_P2;PMS_P1;PMS_P2;Temp;Humidity;BMP_temperature;BMP_pressure;BME280_temperature;BME280_humidity;BME280_pressure;Samples;Min_cycle;Max_cycle;Signal;HPM_P1;HPM_P2
2021/05/15 00:02:06;;;;;;;26.55;16.45;;;8.30;90.50;;;;;;5070068;28;20040;-56
2021/05/15 00:04:36;;;;;;;26.23;16.85;;;8.20;90.40;;;;;;5066009;28;20048;-58
2021/05/15 00:07:02;;;;;;;26.10;16.38;;;8.10;90.60;;;;;;5062638;28;20122;-57
2021/05/15 00:09:27;;;;;;;23.40;15.95;;;8.10;90.60;;;;;;5070047;28;20064;-57
2021/05/15 00:11:53;;;;;;;26.67;16.98;;;8.10;90.70;;;;;;5070763;28;20049;-57
2021/05/15 00:14:18;;;;;;;29.65;16.50;;;8.10;90.90;;;;;;5069376;28;20032;-57
2021/05/15 00:16:50;;;;;;;23.48;16.55;;;8.10;90.90;;;;;;5061565;28;20040;-57
2021/05/15 00:19:22;;;;;;;24.45;15.32;;;8.10;90.80;;;;;;5052246;28;20047;-57
2021/05/15 00:21:48;;;;;;;21.48;13.50;;;8.00;90.80;;;;;;5042244;28;20044;-57
2021/05/15 00:24:15;;;;;;;21.13;13.52;;;8.00;90.60;;;;;;5035699;28;20040;-57
2021/05/15 00:26:40;;;;;;;21.75;14.25;;;8.00;90.40;;;;;;5061240;28;20123;-56
2021/05/15 00:29:08;;;;;;;23.42;14.95;;;7.90;90.40;;;;;;5072107;28;20420;-54
2021/05/15 00:31:39;;;;;;;24.20;15.75;;;7.90;90.50;;;;;;5053241;28;20135;-57
2021/05/15 00:34:05;;;;;;;20.70;14.18;;;7.90;90.50;;;;;;5056557;28;20074;-56
2021/05/15 00:36:36;;;;;;;21.83;14.52;;;7.90;90.60;;;;;;5055170;28;20245;-53
2021/05/15 00:39:03;;;;;;;22.98;15.20;;;7.80;90.70;;;;;;5023541;28;20042;-56
2021/05/15 00:41:33;;;;;;;24.55;15.02;;;7.90;90.90;;;;;;5070660;28;20051;-53
2021/05/15 00:46:55;;;;;;;21.40;14.48;;;7.90;90.90;;;;;;5070742;28;20153;-57
2021/05/15 00:49:21;;;;;;;23.27;15.25;;;7.90;90.80;;;;;;5055484;28;20496;-56
2021/05/15 00:51:52;;;;;;;24.42;15.80;;;7.90;90.80;;;;;;5053878;28;20522;-57
2021/05/15 00:54:20;;;;;;;24.20;16.35;;;7.90;90.90;;;;;;5057663;28;20044;-58
2021/05/15 00:56:48;;;;;;;24.25;16.25;;;8.00;91.20;;;;;;5050629;28;20112;-58
2021/05/15 00:59:15;;;;;;;28.02;16.88;;;7.90;91.00;;;;;;5054686;28;20051;-57
2021/05/15 01:01:43;;;;;;;24.02;15.45;;;7.90;91.00;;;;;;5034054;28;20049;-57
2021/05/15 01:04:12;;;;;;;19.95;14.20;;;7.80;91.20;;;;;;5068466;28;20404;-57
2021/05/15 01:06:40;;;;;;;20.33;13.32;;;7.80;90.90;;;;;;5064814;28;20119;-57
2021/05/15 01:09:11;;;;;;;18.95;13.23;;;7.70;90.60;;;;;;5074063;28;20044;-57
2021/05/15 01:11:36;;;;;;;20.70;13.85;;;7.60;90.50;;;;;;5057270;28;20135;-57
2021/05/15 01:14:04;;;;;;;25.63;15.68;;;7.60;90.50;;;;;;5074797;28;20435;-56
2021/05/15 01:16:32;;;;;;;26.42;15.55;;;7.50;90.80;;;;;;5073118;28;20048;-57
2021/05/15 01:19:04;;;;;;;22.98;15.45;;;7.50;91.00;;;;;;5068484;28;20404;-56
2021/05/15 01:21:31;;;;;;;24.92;15.38;;;7.50;91.20;;;;;;5031058;28;20055;-57
2021/05/15 01:24:00;;;;;;;27.45;16.35;;;7.60;91.40;;;;;;5075058;28;20466;-56
2021/05/15 01:26:31;;;;;;;26.83;15.95;;;7.60;91.30;;;;;;5041773;28;20420;-56
2021/05/15 01:29:00;;;;;;;24.92;15.35;;;7.50;91.40;;;;;;5075555;28;20147;-56
2021/05/15 01:31:27;;;;;;;22.90;15.80;;;7.50;91.60;;;;;;5065351;28;20462;-57
2021/05/15 01:33:53;;;;;;;24.85;16.60;;;7.50;91.50;;;;;;5061441;28;20126;-57
2021/05/15 01:36:20;;;;;;;26.25;16.30;;;7.50;91.30;;;;;;5069672;28;20439;-53
2021/05/15 01:38:47;;;;;;;26.55;16.30;;;7.40;91.30;;;;;;5074350;28;20045;-56
2021/05/15 01:41:18;;;;;;;28.83;17.38;;;7.40;91.40;;;;;;5047367;28;20056;-56
2021/05/15 01:43:48;;;;;;;28.08;17.65;;;7.50;91.10;;;;;;5042045;28;20068;-56
2021/05/15 01:46:14;;;;;;;29.25;16.90;;;7.40;91.10;;;;;;5065430;28;20041;-55
2021/05/15 01:48:42;;;;;;;30.55;18.17;;;7.30;91.20;;;;;;5072549;28;20511;-53
2021/05/15 01:51:11;;;;;;;28.17;16.58;;;7.30;91.30;;;;;;5075291;28;20047;-56
2021/05/15 01:53:42;;;;;;;21.60;13.55;;;7.20;91.40;;;;;;5053133;28;20044;-56
2021/05/15 01:56:15;;;;;;;24.73;15.13;;;7.20;91.20;;;;;;5064631;28;20036;-57
2021/05/15 01:58:45;;;;;;;27.58;16.02;;;7.20;91.00;;;;;;5075250;28;20041;-58
2021/05/15 02:01:16;;;;;;;26.42;16.73;;;7.10;91.10;;;;;;5055576;28;20033;-57
2021/05/15 02:03:44;;;;;;;30.55;18.08;;;7.10;91.20;;;;;;5074941;28;20044;-57
2021/05/15 02:06:17;;;;;;;25.08;16.65;;;7.10;91.20;;;;;;5075275;28;20515;-56
2021/05/15 02:08:45;;;;;;;29.60;17.75;;;7.20;91.50;;;;;;5074499;28;20052;-57
2021/05/15 02:11:12;;;;;;;30.20;16.75;;;7.20;91.40;;;;;;5074518;28;20044;-53
2021/05/15 02:13:38;;;;;;;28.55;17.33;;;7.30;91.80;;;;;;5073653;28;20648;-55
2021/05/15 02:16:05;;;;;;;34.35;17.30;;;7.30;91.80;;;;;;5072790;28;20045;-54
2021/05/15 02:18:31;;;;;;;31.77;17.50;;;7.40;92.30;;;;;;5073592;28;20493;-54
2021/05/15 02:20:57;;;;;;;27.17;17.20;;;7.50;92.00;;;;;;5059698;28;20101;-58
2021/05/15 02:23:27;;;;;;;28.20;17.27;;;7.70;91.90;;;;;;5073554;28;20044;-56
2021/05/15 02:25:54;;;;;;;29.15;17.23;;;7.70;91.90;;;;;;5043266;28;20044;-55
2021/05/15 02:28:20;;;;;;;38.80;16.52;;;7.70;92.00;;;;;;5069040;28;20127;-54
2021/05/15 02:30:46;;;;;;;29.00;17.10;;;7.70;92.00;;;;;;5071337;28;20045;-57
2021/05/15 02:33:12;;;;;;;26.98;16.83;;;7.70;91.90;;;;;;5068310;28;20071;-57
2021/05/15 02:35:39;;;;;;;28.67;18.27;;;7.70;91.90;;;;;;5071833;28;20413;-56
2021/05/15 02:38:11;;;;;;;27.70;17.70;;;7.80;92.00;;;;;;5073412;28;20512;-53
2021/05/15 02:40:41;;;;;;;29.88;17.73;;;7.90;91.90;;;;;;5071896;28;20033;-56
2021/05/15 02:43:10;;;;;;;27.80;16.77;;;7.90;91.80;;;;;;5063800;28;20069;-54
2021/05/15 02:45:38;;;;;;;30.92;17.50;;;7.90;91.80;;;;;;5073117;28;20067;-55
2021/05/15 02:48:04;;;;;;;30.88;17.50;;;8.00;91.80;;;;;;5073529;28;20055;-54
2021/05/15 02:50:30;;;;;;;30.75;16.63;;;8.00;91.70;;;;;;5069718;28;20115;-53
2021/05/15 02:52:56;;;;;;;30.17;16.20;;;8.00;91.60;;;;;;5071671;28;20075;-57
2021/05/15 02:55:25;;;;;;;27.70;15.63;;;8.10;91.70;;;;;;5065342;28;20495;-58
2021/05/15 02:57:53;;;;;;;25.83;15.55;;;8.10;91.60;;;;;;5072850;28;20067;-57
2021/05/15 03:00:28;;;;;;;26.58;15.52;;;8.10;91.60;;;;;;5073229;28;20480;-57
2021/05/15 03:02:56;;;;;;;28.10;15.77;;;8.10;91.60;;;;;;5060996;28;20098;-54
2021/05/15 03:05:25;;;;;;;27.23;16.08;;;8.20;91.50;;;;;;5072889;28;20048;-54
2021/05/15 03:07:55;;;;;;;27.08;15.43;;;8.20;91.30;;;;;;5071172;28;20043;-55
2021/05/15 03:10:23;;;;;;;27.35;16.52;;;8.20;91.30;;;;;;5054932;28;20064;-56
2021/05/15 03:12:51;;;;;;;25.45;16.25;;;8.10;91.30;;;;;;5072410;28;20492;-55
2021/05/15 03:15:17;;;;;;;27.45;16.70;;;8.20;91.50;;;;;;5072390;28;20398;-54
2021/05/15 03:17:44;;;;;;;27.92;16.40;;;8.20;91.50;;;;;;5045114;28;20079;-56
2021/05/15 03:20:17;;;;;;;29.13;15.63;;;8.10;91.50;;;;;;5072659;28;20051;-57
2021/05/15 03:22:45;;;;;;;29.83;15.60;;;8.10;91.60;;;;;;5064393;28;20044;-56
2021/05/15 03:25:11;;;;;;;30.25;15.98;;;8.10;91.60;;;;;;5071864;28;20044;-56
2021/05/15 03:27:37;;;;;;;24.90;15.60;;;8.10;91.50;;;;;;5058249;28;20036;-56
2021/05/15 03:30:08;;;;;;;25.02;15.15;;;8.10;91.70;;;;;;5063308;28;20093;-57
2021/05/15 03:32:40;;;;;;;25.05;14.25;;;8.10;91.80;;;;;;5040240;28;20043;-57
2021/05/15 03:35:08;;;;;;;25.17;14.82;;;8.10;91.70;;;;;;5072099;28;20045;-57
2021/05/15 03:37:38;;;;;;;26.77;15.23;;;8.00;91.70;;;;;;5071990;28;20037;-56
2021/05/15 03:40:05;;;;;;;27.58;16.05;;;8.10;91.70;;;;;;5047054;28;20036;-56
2021/05/15 03:42:31;;;;;;;25.02;14.93;;;8.20;91.60;;;;;;5066593;28;20093;-56
2021/05/15 03:44:57;;;;;;;24.98;15.85;;;8.20;91.50;;;;;;5072792;28;20048;-58
2021/05/15 03:47:27;;;;;;;28.38;14.85;;;8.30;91.50;;;;;;5071672;28;20063;-57
2021/05/15 03:49:55;;;;;;;26.80;15.88;;;8.30;91.90;;;;;;5071643;28;20047;-55
2021/05/15 03:52:21;;;;;;;24.42;14.70;;;8.40;91.80;;;;;;5070191;28;20039;-57
2021/05/15 03:54:49;;;;;;;25.55;14.60;;;8.40;91.30;;;;;;5053760;28;20040;-57
2021/05/15 03:57:15;;;;;;;22.48;13.60;;;8.40;91.30;;;;;;5063356;28;20048;-58
2021/05/15 03:59:41;;;;;;;25.17;14.75;;;8.40;91.50;;;;;;5071130;28;20449;-57
2021/05/15 04:02:07;;;;;;;24.05;14.18;;;8.40;91.50;;;;;;5069994;28;20158;-56
2021/05/15 04:04:38;;;;;;;23.38;14.52;;;8.50;91.20;;;;;;5071793;28;20127;-58
2021/05/15 04:07:04;;;;;;;20.95;14.15;;;8.60;91.00;;;;;;5066829;28;20045;-57
2021/05/15 04:09:30;;;;;;;24.58;14.43;;;8.50;91.40;;;;;;5072935;28;20043;-54
2021/05/15 04:11:56;;;;;;;26.98;14.10;;;8.50;91.30;;;;;;5070867;28;20048;-55
2021/05/15 04:14:36;;;;;;;24.08;14.23;;;8.50;91.30;;;;;;5067847;28;20041;-54
2021/05/15 04:19:37;;;;;;;23.85;14.35;;;8.50;91.20;;;;;;5064770;28;20133;-56
2021/05/15 04:22:03;;;;;;;27.85;15.43;;;8.50;91.20;;;;;;5069782;28;20431;-56
2021/05/15 04:24:32;;;;;;;21.48;14.02;;;8.50;91.20;;;;;;5064812;28;20036;-57
2021/05/15 04:26:59;;;;;;;26.33;15.18;;;8.60;91.30;;;;;;5047161;28;20045;-54
2021/05/15 04:29:26;;;;;;;23.50;14.55;;;8.60;91.30;;;;;;5062082;28;20037;-57
2021/05/15 04:31:54;;;;;;;28.08;14.52;;;8.70;91.20;;;;;;5070015;28;20051;-55
2021/05/15 04:34:20;;;;;;;22.00;13.73;;;8.70;91.20;;;;;;5072068;28;20480;-57
2021/05/15 04:36:48;;;;;;;21.95;13.32;;;8.70;91.20;;;;;;5072252;28;20400;-56
2021/05/15 04:39:19;;;;;;;24.63;14.45;;;8.70;91.10;;;;;;5072170;28;20067;-57
2021/05/15 04:41:52;;;;;;;24.60;14.48;;;8.70;91.10;;;;;;5063643;28;20033;-57
2021/05/15 04:44:18;;;;;;;24.35;14.60;;;8.80;91.00;;;;;;5065713;28;20044;-57
2021/05/15 04:46:44;;;;;;;25.55;14.50;;;8.80;90.90;;;;;;5067532;28;20455;-57
2021/05/15 04:49:11;;;;;;;27.90;15.52;;;8.70;91.30;;;;;;5051740;28;20127;-58
2021/05/15 04:51:37;;;;;;;25.83;14.73;;;8.70;91.00;;;;;;5067388;28;20060;-57
2021/05/15 04:54:04;;;;;;;24.33;13.85;;;8.80;91.10;;;;;;5067437;28;20512;-57
2021/05/15 04:56:30;;;;;;;23.25;14.27;;;8.80;91.10;;;;;;5073290;28;20037;-57
2021/05/15 04:58:56;;;;;;;27.05;14.85;;;8.80;91.00;;;;;;5066529;28;20083;-52
2021/05/15 05:01:22;;;;;;;23.20;13.13;;;8.80;90.80;;;;;;5056269;28;20028;-57
2021/05/15 05:03:48;;;;;;;22.95;13.77;;;8.90;90.80;;;;;;5072068;28;21177;-55
2021/05/15 05:06:14;;;;;;;25.95;14.30;;;8.80;90.80;;;;;;5067524;28;20048;-57
2021/05/15 05:08:39;;;;;;;26.65;15.20;;;8.90;90.80;;;;;;5071651;28;20049;-57
2021/05/15 05:11:10;;;;;;;30.65;16.35;;;8.90;90.70;;;;;;5065024;28;20052;-54
2021/05/15 05:13:40;;;;;;;30.63;14.90;;;9.00;90.60;;;;;;5055746;28;20574;-57
2021/05/15 05:16:08;;;;;;;26.83;15.27;;;9.00;90.60;;;;;;5056698;28;20507;-56
2021/05/15 05:18:35;;;;;;;27.70;15.98;;;9.00;90.50;;;;;;5062383;28;20128;-56
2021/05/15 05:21:02;;;;;;;31.92;15.70;;;9.00;90.50;;;;;;5045714;28;20051;-57
2021/05/15 05:23:28;;;;;;;31.33;16.60;;;9.10;90.00;;;;;;5071544;28;20048;-56
2021/05/15 05:25:56;;;;;;;31.13;16.55;;;9.20;90.00;;;;;;5071211;28;20436;-54
2021/05/15 05:28:25;;;;;;;28.73;15.25;;;9.20;90.10;;;;;;5036591;28;20037;-56
2021/05/15 05:30:52;;;;;;;29.00;16.75;;;9.20;90.10;;;;;;5074927;28;20044;-56
2021/05/15 05:33:18;;;;;;;30.70;16.10;;;9.20;90.00;;;;;;5077112;28;20090;-56
2021/05/15 05:35:44;;;;;;;28.67;16.70;;;9.10;90.20;;;;;;5075924;28;20040;-54
2021/05/15 05:38:10;;;;;;;28.00;16.17;;;9.10;90.30;;;;;;5074408;28;20048;-56
2021/05/15 05:40:39;;;;;;;28.00;15.82;;;9.10;90.40;;;;;;5069681;28;20045;-55
2021/05/15 05:43:06;;;;;;;30.25;16.13;;;9.10;90.70;;;;;;5059142;28;20055;-56
2021/05/15 05:45:34;;;;;;;31.92;16.38;;;9.20;90.50;;;;;;5057716;28;20044;-56
2021/05/15 05:47:59;;;;;;;31.10;16.63;;;9.20;90.50;;;;;;5075695;28;20098;-56
2021/05/15 05:50:25;;;;;;;26.17;15.40;;;9.20;90.30;;;;;;5073890;28;20443;-55
2021/05/15 05:52:51;;;;;;;33.38;16.15;;;9.30;90.20;;;;;;5075696;28;20036;-56
2021/05/15 05:55:17;;;;;;;29.00;17.08;;;9.30;90.20;;;;;;5074326;28;20045;-57
2021/05/15 05:57:43;;;;;;;26.40;15.40;;;9.30;90.30;;;;;;5076681;28;20089;-59
2021/05/15 06:00:12;;;;;;;30.65;17.35;;;9.30;90.50;;;;;;5071367;28;20497;-57
2021/05/15 06:02:39;;;;;;;32.35;16.05;;;9.40;90.50;;;;;;5055103;28;20115;-55
2021/05/15 06:05:24;;;;;;;28.20;16.58;;;9.50;89.90;;;;;;5072500;28;20114;-55
2021/05/15 06:07:50;;;;;;;31.10;16.67;;;9.50;90.00;;;;;;5075670;28;20055;-53
2021/05/15 06:10:16;;;;;;;29.77;16.55;;;9.50;89.90;;;;;;5069966;28;20038;-55
2021/05/15 06:12:42;;;;;;;27.88;15.68;;;9.50;90.10;;;;;;5074375;28;20127;-55
2021/05/15 06:15:08;;;;;;;26.20;15.95;;;9.50;90.40;;;;;;5074040;28;20045;-53
2021/05/15 06:17:34;;;;;;;31.17;16.02;;;9.60;90.40;;;;;;5071754;28;20033;-55
2021/05/15 06:20:00;;;;;;;28.90;15.95;;;9.60;89.40;;;;;;5072039;28;20058;-54
2021/05/15 06:22:26;;;;;;;28.75;15.65;;;9.60;89.50;;;;;;5071879;28;20557;-55
2021/05/15 06:24:53;;;;;;;27.55;15.43;;;9.60;90.10;;;;;;5073504;28;20131;-57
2021/05/15 06:27:18;;;;;;;30.88;15.15;;;9.60;90.00;;;;;;5076501;28;20114;-56
2021/05/15 06:29:49;;;;;;;26.48;15.18;;;9.60;90.00;;;;;;5064339;28;20592;-53
2021/05/15 06:32:15;;;;;;;24.42;14.25;;;9.60;90.00;;;;;;5046055;28;20047;-55
2021/05/15 06:34:41;;;;;;;24.55;14.40;;;9.70;89.00;;;;;;5071012;28;20036;-54
2021/05/15 06:37:07;;;;;;;26.73;14.00;;;9.70;89.40;;;;;;5070666;28;20063;-56
2021/05/15 06:39:32;;;;;;;23.20;13.98;;;9.80;87.70;;;;;;5068576;28;20420;-57
2021/05/15 06:42:02;;;;;;;26.65;14.85;;;9.80;87.90;;;;;;5066122;28;20390;-54
2021/05/15 06:44:28;;;;;;;26.70;14.50;;;9.80;88.40;;;;;;5071830;28;20061;-51
2021/05/15 06:46:53;;;;;;;25.38;13.25;;;9.80;89.10;;;;;;5068104;28;20044;-57
2021/05/15 06:49:19;;;;;;;27.92;15.05;;;9.90;88.80;;;;;;5068748;28;20492;-57
2021/05/15 06:51:44;;;;;;;23.92;13.23;;;9.90;87.90;;;;;;5065268;28;20043;-57
2021/05/15 06:54:10;;;;;;;30.23;15.07;;;10.00;87.60;;;;;;5063966;28;20051;-55
2021/05/15 06:56:36;;;;;;;25.75;14.73;;;10.00;87.10;;;;;;5051117;28;20662;-56
2021/05/15 06:59:01;;;;;;;29.33;14.20;;;10.00;87.00;;;;;;5064909;28;20049;-57
2021/05/15 07:01:27;;;;;;;27.20;15.52;;;10.00;87.20;;;;;;5068847;28;20045;-57
2021/05/15 07:03:52;;;;;;;26.13;14.57;;;10.00;86.90;;;;;;5066491;28;20389;-55
2021/05/15 07:06:18;;;;;;;28.00;14.57;;;10.10;87.20;;;;;;5066208;28;20127;-54
2021/05/15 07:08:44;;;;;;;26.65;14.60;;;10.20;86.80;;;;;;5071316;28;20550;-54
2021/05/15 07:11:11;;;;;;;31.38;15.68;;;10.30;84.90;;;;;;5070593;28;20044;-58
2021/05/15 07:13:36;;;;;;;25.38;14.60;;;10.30;86.30;;;;;;5036320;28;20109;-57
2021/05/15 07:16:03;;;;;;;26.80;15.00;;;10.20;86.60;;;;;;5070246;28;20052;-57
2021/05/15 07:18:30;;;;;;;31.30;15.85;;;10.20;86.90;;;;;;5040441;28;20409;-57
2021/05/15 07:20:56;;;;;;;27.42;14.95;;;10.20;86.80;;;;;;5059259;28;20039;-57
2021/05/15 07:23:21;;;;;;;33.45;17.23;;;10.30;87.40;;;;;;5069007;28;20097;-57
2021/05/15 07:25:47;;;;;;;33.65;18.23;;;10.40;86.60;;;;;;5066170;28;20098;-55
2021/05/15 07:28:13;;;;;;;32.65;17.45;;;10.40;86.40;;;;;;5061304;28;20044;-54
2021/05/15 07:30:38;;;;;;;37.03;16.80;;;10.40;86.90;;;;;;5069244;28;20044;-54
2021/05/15 07:33:04;;;;;;;30.42;16.92;;;10.30;87.30;;;;;;5063631;28;20087;-53
2021/05/15 07:35:30;;;;;;;32.70;17.65;;;10.40;87.50;;;;;;5067237;28;20066;-54
2021/05/15 07:37:55;;;;;;;31.90;17.77;;;10.40;87.60;;;;;;5065350;28;20045;-56
2021/05/15 07:40:21;;;;;;;34.05;17.88;;;10.40;87.60;;;;;;5066469;28;20316;-54
2021/05/15 07:42:48;;;;;;;32.63;17.92;;;10.40;87.90;;;;;;5071772;28;20049;-55
2021/05/15 07:45:15;;;;;;;36.20;18.83;;;10.40;88.30;;;;;;5067912;28;20455;-56
2021/05/15 07:47:45;;;;;;;35.17;19.23;;;10.30;88.50;;;;;;5062159;28;20037;-54
2021/05/15 07:50:15;;;;;;;37.63;18.58;;;10.40;88.60;;;;;;5059159;28;20178;-56
2021/05/15 07:52:41;;;;;;;35.55;18.83;;;10.50;87.60;;;;;;5057187;28;20072;-54
2021/05/15 07:55:13;;;;;;;33.78;18.40;;;10.50;87.30;;;;;;5060309;28;20101;-54
2021/05/15 07:57:39;;;;;;;34.88;19.20;;;10.60;86.90;;;;;;5060423;28;20045;-53
2021/05/15 08:00:06;;;;;;;35.78;18.50;;;10.50;87.50;;;;;;5063936;28;20033;-56
2021/05/15 08:02:32;;;;;;;33.78;18.88;;;10.60;87.70;;;;;;5061828;28;20507;-54
2021/05/15 08:04:58;;;;;;;35.60;19.23;;;10.60;88.20;;;;;;5066594;28;20044;-55
2021/05/15 08:07:26;;;;;;;38.03;19.02;;;10.60;88.30;;;;;;5066606;28;20064;-57
2021/05/15 08:09:51;;;;;;;34.40;20.08;;;10.70;88.30;;;;;;5047336;28;20090;-56
2021/05/15 08:12:25;;;;;;;35.88;19.17;;;10.80;88.10;;;;;;5063445;28;20481;-57
2021/05/15 08:14:51;;;;;;;37.40;19.77;;;10.90;86.70;;;;;;5046030;28;20132;-55
2021/05/15 08:17:17;;;;;;;39.85;20.05;;;10.90;86.90;;;;;;5070530;28;20471;-54
2021/05/15 08:19:42;;;;;;;35.42;19.40;;;10.80;87.20;;;;;;5065276;28;20112;-57
2021/05/15 08:22:11;;;;;;;40.17;19.90;;;10.90;87.40;;;;;;5063955;28;20052;-58
2021/05/15 08:24:39;;;;;;;38.97;22.10;;;10.90;87.50;;;;;;5061621;28;20052;-58
2021/05/15 08:27:05;;;;;;;40.80;24.17;;;10.90;87.80;;;;;;5049546;28;20041;-57
2021/05/15 08:29:32;;;;;;;44.75;24.90;;;10.90;88.50;;;;;;5060935;28;20028;-57
2021/05/15 08:32:01;;;;;;;46.25;25.08;;;11.00;88.00;;;;;;5063437;28;20098;-58
2021/05/15 08:34:35;;;;;;;41.10;25.42;;;11.00;88.00;;;;;;5023689;28;20041;-59
2021/05/15 08:37:04;;;;;;;46.85;25.05;;;11.10;88.30;;;;;;5063075;28;20091;-58
2021/05/15 08:39:31;;;;;;;46.05;25.75;;;11.10;88.50;;;;;;5047231;28;20028;-57
2021/05/15 08:41:57;;;;;;;44.33;25.55;;;11.10;87.90;;;;;;5066345;28;20045;-57
2021/05/15 08:44:24;;;;;;;47.17;26.38;;;11.00;88.30;;;;;;5066518;28;20041;-57
2021/05/15 08:46:59;;;;;;;49.05;27.58;;;11.00;88.70;;;;;;5062541;28;20060;-55
2021/05/15 08:49:30;;;;;;;49.17;27.83;;;11.10;88.30;;;;;;5045456;28;20048;-57
2021/05/15 08:51:55;;;;;;;49.15;25.92;;;11.10;88.80;;;;;;5051143;28;20108;-56
2021/05/15 08:54:22;;;;;;;45.40;26.13;;;11.10;88.70;;;;;;5072164;28;20100;-56
2021/05/15 08:56:52;;;;;;;51.13;27.45;;;11.10;88.50;;;;;;5074156;28;20045;-56
2021/05/15 08:59:18;;;;;;;50.28;28.08;;;11.00;89.10;;;;;;5070748;28;20115;-57
2021/05/15 09:01:44;;;;;;;52.47;29.30;;;11.10;89.20;;;;;;5061012;28;20036;-55
2021/05/15 09:04:10;;;;;;;50.47;27.95;;;11.20;89.70;;;;;;5062394;28;20049;-56
2021/05/15 09:06:41;;;;;;;45.50;27.88;;;11.30;88.70;;;;;;5061605;28;20047;-56
2021/05/15 09:09:10;;;;;;;51.58;29.52;;;11.30;88.30;;;;;;5041068;28;20037;-56
2021/05/15 09:11:36;;;;;;;47.65;28.80;;;11.30;89.00;;;;;;5057578;28;20094;-55
2021/05/15 09:14:03;;;;;;;48.65;28.83;;;11.30;89.20;;;;;;5071251;28;20036;-57
2021/05/15 09:16:29;;;;;;;48.30;29.05;;;11.40;89.50;;;;;;5049789;28;20051;-57
2021/05/15 09:19:04;;;;;;;47.95;28.60;;;11.40;89.30;;;;;;5064115;28;20445;-56
2021/05/15 09:21:30;;;;;;;49.88;29.33;;;11.40;89.50;;;;;;5072277;28;20484;-56
2021/05/15 09:24:06;;;;;;;50.80;29.13;;;11.40;89.50;;;;;;5075469;28;20044;-55
2021/05/15 09:26:31;;;;;;;49.28;28.40;;;11.40;89.70;;;;;;5070790;28;20040;-57
2021/05/15 09:28:58;;;;;;;46.83;30.00;;;11.40;90.00;;;;;;5073736;28;20055;-56
2021/05/15 09:31:42;;;;;;;48.97;29.70;;;11.50;89.80;;;;;;5075358;28;20127;-56
2021/05/15 09:34:10;;;;;;;45.88;29.23;;;11.50;89.00;;;;;;5073796;28;20404;-57
2021/05/15 09:36:38;;;;;;;47.95;30.42;;;11.50;89.10;;;;;;5074982;28;20114;-54
2021/05/15 09:39:04;;;;;;;46.58;30.17;;;11.40;89.40;;;;;;5071705;28;20056;-54
2021/05/15 09:41:34;;;;;;;54.17;30.77;;;11.50;89.70;;;;;;5072362;28;20119;-55
2021/05/15 09:44:00;;;;;;;52.78;30.10;;;11.50;89.70;;;;;;5073209;28;20040;-55
2021/05/15 09:46:29;;;;;;;48.55;29.30;;;11.50;90.00;;;;;;5074487;28;20086;-55
2021/05/15 09:48:59;;;;;;;52.42;31.30;;;11.60;90.00;;;;;;5070721;28;20048;-56
2021/05/15 09:51:26;;;;;;;49.60;30.50;;;11.70;90.00;;;;;;5064741;28;20045;-54
2021/05/15 09:53:52;;;;;;;48.45;30.40;;;11.80;90.00;;;;;;5066287;28;20500;-57
2021/05/15 09:56:29;;;;;;;49.65;28.85;;;11.80;89.70;;;;;;5069783;28;20075;-56
2021/05/15 09:58:56;;;;;;;44.03;29.25;;;11.90;88.80;;;;;;5063695;28;20067;-57
2021/05/15 10:01:25;;;;;;;44.55;29.65;;;12.00;88.70;;;;;;5057156;28;20044;-53
2021/05/15 10:04:12;;;;;;;44.72;28.63;;;12.00;88.80;;;;;;5061518;28;20412;-58
2021/05/15 10:06:38;;;;;;;43.03;26.80;;;12.00;88.70;;;;;;5050485;28;20110;-54
2021/05/15 10:09:04;;;;;;;41.22;27.17;;;12.10;88.90;;;;;;5074928;28;20484;-54
2021/05/15 10:11:30;;;;;;;41.45;27.90;;;12.10;88.90;;;;;;5062766;28;20037;-56
2021/05/15 10:13:57;;;;;;;37.92;26.02;;;12.20;88.40;;;;;;5070743;28;20516;-56
2021/05/15 10:16:37;;;;;;;39.45;25.63;;;12.30;87.90;;;;;;5059129;28;20040;-53
2021/05/15 10:19:05;;;;;;;35.72;25.58;;;12.50;87.70;;;;;;5066915;28;20091;-54
2021/05/15 10:21:32;;;;;;;36.00;25.30;;;12.60;87.20;;;;;;5066242;28;20482;-56
2021/05/15 10:23:59;;;;;;;35.63;25.02;;;12.70;86.30;;;;;;5074457;28;20041;-56
2021/05/15 10:26:26;;;;;;;40.10;24.55;;;12.80;85.30;;;;;;5070130;28;20564;-53
2021/05/15 10:29:04;;;;;;;36.65;24.52;;;12.80;83.70;;;;;;5065145;28;20070;-55
2021/05/15 10:31:42;;;;;;;36.53;23.83;;;12.80;83.90;;;;;;5049401;28;20135;-57
2021/05/15 10:34:11;;;;;;;41.53;25.08;;;12.70;84.20;;;;;;5057464;28;20064;-54
2021/05/15 10:36:48;;;;;;;38.25;24.60;;;12.70;84.40;;;;;;5041143;28;20132;-54
2021/05/15 10:39:28;;;;;;;39.67;25.02;;;12.70;84.50;;;;;;5069583;28;20051;-54
2021/05/15 10:41:55;;;;;;;41.45;24.33;;;12.80;85.30;;;;;;5064760;28;20040;-56
2021/05/15 10:44:21;;;;;;;38.20;25.33;;;12.90;84.70;;;;;;5074240;28;20416;-53
2021/05/15 10:46:51;;;;;;;38.03;25.80;;;13.10;84.10;;;;;;5072118;28;20094;-56
2021/05/15 10:49:23;;;;;;;37.85;23.90;;;13.20;83.40;;;;;;5060237;28;20036;-55
2021/05/15 10:51:54;;;;;;;38.42;26.23;;;13.30;82.60;;;;;;5069517;28;20044;-56
2021/05/15 10:54:31;;;;;;;35.85;25.52;;;13.50;81.70;;;;;;5074773;28;20040;-55
2021/05/15 10:57:12;;;;;;;39.10;24.85;;;13.50;81.00;;;;;;5068345;28;20056;-54
2021/05/15 10:59:40;;;;;;;37.25;24.70;;;13.40;81.20;;;;;;5050039;28;20052;-55
2021/05/15 11:02:13;;;;;;;34.72;22.98;;;13.40;81.70;;;;;;5075377;28;20337;-57
2021/05/15 11:04:55;;;;;;;36.38;24.67;;;13.30;81.10;;;;;;5074304;28;20037;-55
2021/05/15 11:07:23;;;;;;;36.42;25.65;;;13.30;80.80;;;;;;5058294;28;20036;-56
2021/05/15 11:09:57;;;;;;;38.95;25.10;;;13.50;81.20;;;;;;5073465;28;20401;-54
2021/05/15 11:12:30;;;;;;;39.85;25.90;;;13.70;80.60;;;;;;5031678;28;20040;-55
2021/05/15 11:15:06;;;;;;;35.40;24.30;;;13.70;80.50;;;;;;5074333;28;20041;-55
2021/05/15 11:17:32;;;;;;;34.20;24.27;;;13.70;79.70;;;;;;5073148;28;20044;-56
2021/05/15 11:20:19;;;;;;;36.72;24.52;;;13.90;78.10;;;;;;5073041;28;20411;-54
2021/05/15 11:22:53;;;;;;;35.97;24.20;;;13.80;78.30;;;;;;5055495;28;20101;-58
2021/05/15 11:25:28;;;;;;;35.50;23.98;;;13.90;77.30;;;;;;5073509;28;20044;-55
2021/05/15 11:28:00;;;;;;;35.35;22.70;;;13.90;78.30;;;;;;5074953;28;20100;-54
2021/05/15 11:30:33;;;;;;;37.40;23.00;;;13.90;77.70;;;;;;5067419;28;21556;-54
2021/05/15 11:33:11;;;;;;;34.78;21.75;;;13.90;77.20;;;;;;5064648;28;20029;-51
2021/05/15 11:35:47;;;;;;;32.17;22.50;;;13.90;77.60;;;;;;5054288;28;20040;-54
2021/05/15 11:38:19;;;;;;;29.38;21.00;;;14.00;76.90;;;;;;5037374;28;20090;-58
2021/05/15 11:40:47;;;;;;;32.28;21.63;;;14.10;76.70;;;;;;5069913;28;20129;-56
2021/05/15 11:43:22;;;;;;;28.45;18.65;;;14.30;75.70;;;;;;5069540;28;20087;-58
2021/05/15 11:45:48;;;;;;;28.13;19.50;;;14.60;73.10;;;;;;5064901;28;20040;-58
2021/05/15 11:48:20;;;;;;;25.92;18.33;;;14.80;74.10;;;;;;5065423;28;20492;-55
2021/05/15 11:51:03;;;;;;;29.23;18.88;;;14.80;73.10;;;;;;5047025;28;20037;-52
2021/05/15 11:53:31;;;;;;;27.20;17.90;;;14.80;73.50;;;;;;5062162;28;20090;-56
2021/05/15 11:55:56;;;;;;;28.95;17.92;;;14.90;73.90;;;;;;5061699;28;20041;-56
2021/05/15 11:58:22;;;;;;;25.42;17.60;;;15.10;72.90;;;;;;5057188;28;20600;-57
2021/05/15 12:00:49;;;;;;;23.60;16.98;;;15.00;71.70;;;;;;5060535;28;20055;-57
2021/05/15 12:03:23;;;;;;;23.20;15.15;;;14.90;70.10;;;;;;5059122;28;20058;-57
2021/05/15 12:05:51;;;;;;;23.40;16.30;;;14.80;70.70;;;;;;5036981;28;20045;-56
2021/05/15 12:08:19;;;;;;;21.25;14.13;;;14.70;69.70;;;;;;5052983;28;20036;-57
2021/05/15 12:10:48;;;;;;;21.27;14.95;;;14.60;70.40;;;;;;5063421;28;20109;-57
2021/05/15 12:13:15;;;;;;;20.77;14.38;;;14.60;70.00;;;;;;5065887;28;20048;-57
2021/05/15 12:15:47;;;;;;;20.38;15.13;;;14.60;69.30;;;;;;5063010;28;20041;-57
2021/05/15 12:18:16;;;;;;;23.35;16.13;;;14.60;70.10;;;;;;5065534;28;20107;-56
2021/05/15 12:20:47;;;;;;;25.15;16.98;;;14.70;70.40;;;;;;5050129;28;20109;-54
2021/05/15 12:23:27;;;;;;;22.98;15.88;;;14.80;70.10;;;;;;5073437;28;20039;-57
2021/05/15 12:26:08;;;;;;;22.40;16.38;;;15.00;68.70;;;;;;5058818;28;20040;-54
2021/05/15 12:28:58;;;;;;;21.52;15.60;;;15.20;68.60;;;;;;5069652;28;20151;-57
2021/05/15 12:31:27;;;;;;;23.20;16.10;;;15.30;69.40;;;;;;5052668;28;20148;-57
2021/05/15 12:33:57;;;;;;;21.77;15.77;;;15.60;68.30;;;;;;5052474;28;20057;-55
2021/05/15 12:36:30;;;;;;;21.17;14.98;;;15.60;66.60;;;;;;5070217;28;20068;-54
2021/05/15 12:38:57;;;;;;;20.20;14.90;;;15.70;67.10;;;;;;5070307;28;20090;-56
2021/05/15 12:41:44;;;;;;;21.25;13.57;;;15.80;65.60;;;;;;5054921;28;20538;-57
2021/05/15 12:44:19;;;;;;;21.75;13.40;;;16.10;65.50;;;;;;5074301;28;20036;-54
2021/05/15 12:46:51;;;;;;;17.77;13.27;;;16.30;63.30;;;;;;5052126;28;20101;-53